sensor_id;sensor_type;location;lat;lon;timestamp;P1;durP1;ratioP1;P2;durP2;ratioP2
79375;SDS011;68846;53.150;18.136;2023-04-03T00:00:52;4.10;;;1.40;;
79375;SDS011;68846;53.150;18.136;2023-04-03T00:03:19;5.80;;;1.00;;
79375;SDS011;68846;53.150;18.136;2023-04-03T00:05:47;4.10;;;1.10;;
79375;SDS011;68846;53.150;18.136;2023-04-03T00:08:14;5.80;;;1.10;;
79375;SDS011;68846;53.150;18.136;2023-04-03T00:10:41;5.30;;;0.90;;
79375;SDS011;68846;53.150;18.136;2023-04-03T00:13:09;5.30;;;0.90;;
79375;SDS011;68846;53.150;18.136;2023-04-03T00:18:04;1.60;;;0.90;;
79375;SDS011;68846;53.150;18.136;2023-04-03T00:20:32;6.10;;;1.10;;
79375;SDS011;68846;53.150;18.136;2023-04-03T00:23:00;3.40;;;1.10;;
79375;SDS011;68846;53.150;18.136;2023-04-03T00:25:28;5.20;;;1.20;;
79375;SDS011;68846;53.150;18.136;2023-04-03T00:27:55;5.00;;;1.30;;
79375;SDS011;68846;53.150;18.136;2023-04-03T00:30:22;2.50;;;0.90;;
79375;SDS011;68846;53.150;18.136;2023-04-03T00:32:50;4.80;;;1.00;;
79375;SDS011;68846;53.150;18.136;2023-04-03T00:35:19;3.70;;;1.10;;
79375;SDS011;68846;53.150;18.136;2023-04-03T00:37:47;2.70;;;0.90;;
79375;SDS011;68846;53.150;18.136;2023-04-03T00:42:42;2.90;;;1.00;;
79375;SDS011;68846;53.150;18.136;2023-04-03T00:48:01;2.20;;;0.80;;
79375;SDS011;68846;53.150;18.136;2023-04-03T00:50:33;2.10;;;0.90;;
79375;SDS011;68846;53.150;18.136;2023-04-03T00:53:03;3.00;;;0.80;;
79375;SDS011;68846;53.150;18.136;2023-04-03T00:55:33;2.50;;;1.10;;
79375;SDS011;68846;53.150;18.136;2023-04-03T00:58:02;4.20;;;1.20;;
79375;SDS011;68846;53.150;18.136;2023-04-03T01:00:29;4.50;;;1.20;;
79375;SDS011;68846;53.150;18.136;2023-04-03T01:02:57;4.00;;;1.00;;
79375;SDS011;68846;53.150;18.136;2023-04-03T01:05:24;3.10;;;0.80;;
79375;SDS011;68846;53.150;18.136;2023-04-03T01:07:51;4.10;;;0.90;;
79375;SDS011;68846;53.150;18.136;2023-04-03T01:10:20;3.20;;;1.10;;
79375;SDS011;68846;53.150;18.136;2023-04-03T01:12:49;3.70;;;1.00;;
79375;SDS011;68846;53.150;18.136;2023-04-03T01:15:24;4.90;;;1.00;;
79375;SDS011;68846;53.150;18.136;2023-04-03T01:17:56;2.60;;;0.90;;
79375;SDS011;68846;53.150;18.136;2023-04-03T01:25:47;3.00;;;0.90;;
79375;SDS011;68846;53.150;18.136;2023-04-03T01:28:33;4.10;;;0.90;;
79375;SDS011;68846;53.150;18.136;2023-04-03T01:34:14;2.20;;;1.00;;
79375;SDS011;68846;53.150;18.136;2023-04-03T01:36:41;3.80;;;0.80;;
79375;SDS011;68846;53.150;18.136;2023-04-03T01:39:08;2.60;;;1.00;;
79375;SDS011;68846;53.150;18.136;2023-04-03T01:44:09;3.20;;;0.80;;
79375;SDS011;68846;53.150;18.136;2023-04-03T01:46:37;2.80;;;1.10;;
79375;SDS011;68846;53.150;18.136;2023-04-03T01:49:04;5.50;;;1.00;;
79375;SDS011;68846;53.150;18.136;2023-04-03T01:51:31;1.60;;;0.70;;
79375;SDS011;68846;53.150;18.136;2023-04-03T01:54:00;3.30;;;1.00;;
79375;SDS011;68846;53.150;18.136;2023-04-03T01:56:27;3.30;;;0.70;;
79375;SDS011;68846;53.150;18.136;2023-04-03T01:58:55;4.00;;;1.40;;
79375;SDS011;68846;53.150;18.136;2023-04-03T02:01:22;4.60;;;1.20;;
79375;SDS011;68846;53.150;18.136;2023-04-03T02:03:49;5.80;;;1.10;;
79375;SDS011;68846;53.150;18.136;2023-04-03T02:06:17;5.00;;;1.10;;
79375;SDS011;68846;53.150;18.136;2023-04-03T02:08:44;3.50;;;0.90;;
79375;SDS011;68846;53.150;18.136;2023-04-03T02:11:11;4.70;;;1.20;;
79375;SDS011;68846;53.150;18.136;2023-04-03T02:13:37;4.20;;;1.20;;
79375;SDS011;68846;53.150;18.136;2023-04-03T02:16:08;3.60;;;1.00;;
79375;SDS011;68846;53.150;18.136;2023-04-03T02:18:37;4.80;;;1.30;;
79375;SDS011;68846;53.150;18.136;2023-04-03T02:21:05;2.10;;;1.00;;
79375;SDS011;68846;53.150;18.136;2023-04-03T02:23:32;2.40;;;0.90;;
79375;SDS011;68846;53.150;18.136;2023-04-03T02:26:04;6.20;;;1.10;;
79375;SDS011;68846;53.150;18.136;2023-04-03T02:28:36;3.30;;;1.20;;
79375;SDS011;68846;53.150;18.136;2023-04-03T02:31:03;3.50;;;0.90;;
79375;SDS011;68846;53.150;18.136;2023-04-03T02:33:31;4.30;;;1.50;;
79375;SDS011;68846;53.150;18.136;2023-04-03T02:35:59;3.00;;;1.00;;
79375;SDS011;68846;53.150;18.136;2023-04-03T02:38:26;2.60;;;0.90;;
79375;SDS011;68846;53.150;18.136;2023-04-03T02:40:53;4.90;;;1.00;;
79375;SDS011;68846;53.150;18.136;2023-04-03T02:43:25;4.70;;;1.30;;
79375;SDS011;68846;53.150;18.136;2023-04-03T02:45:53;4.30;;;1.10;;
79375;SDS011;68846;53.150;18.136;2023-04-03T02:50:48;4.40;;;0.90;;
79375;SDS011;68846;53.150;18.136;2023-04-03T02:53:15;4.30;;;0.90;;
79375;SDS011;68846;53.150;18.136;2023-04-03T02:55:42;3.30;;;1.00;;
79375;SDS011;68846;53.150;18.136;2023-04-03T02:58:10;7.50;;;1.60;;
79375;SDS011;68846;53.150;18.136;2023-04-03T03:00:37;4.00;;;1.00;;
79375;SDS011;68846;53.150;18.136;2023-04-03T03:05:31;4.10;;;1.10;;
79375;SDS011;68846;53.150;18.136;2023-04-03T03:07:58;3.20;;;0.80;;
79375;SDS011;68846;53.150;18.136;2023-04-03T03:10:25;6.40;;;1.20;;
79375;SDS011;68846;53.150;18.136;2023-04-03T03:12:52;2.30;;;1.00;;
79375;SDS011;68846;53.150;18.136;2023-04-03T03:15:19;3.80;;;1.10;;
79375;SDS011;68846;53.150;18.136;2023-04-03T03:17:46;3.50;;;1.20;;
79375;SDS011;68846;53.150;18.136;2023-04-03T03:20:13;3.70;;;1.10;;
79375;SDS011;68846;53.150;18.136;2023-04-03T03:22:41;3.90;;;1.20;;
79375;SDS011;68846;53.150;18.136;2023-04-03T03:25:08;4.80;;;1.30;;
79375;SDS011;68846;53.150;18.136;2023-04-03T03:27:37;3.30;;;1.00;;
79375;SDS011;68846;53.150;18.136;2023-04-03T03:30:05;3.00;;;1.00;;
79375;SDS011;68846;53.150;18.136;2023-04-03T03:32:33;2.80;;;1.00;;
79375;SDS011;68846;53.150;18.136;2023-04-03T03:34:59;2.80;;;0.80;;
79375;SDS011;68846;53.150;18.136;2023-04-03T03:37:26;5.10;;;1.20;;
79375;SDS011;68846;53.150;18.136;2023-04-03T03:39:54;3.80;;;1.20;;
79375;SDS011;68846;53.150;18.136;2023-04-03T03:42:21;4.60;;;1.10;;
79375;SDS011;68846;53.150;18.136;2023-04-03T03:44:49;4.30;;;1.00;;
79375;SDS011;68846;53.150;18.136;2023-04-03T03:47:16;4.40;;;1.50;;
79375;SDS011;68846;53.150;18.136;2023-04-03T03:49:43;3.80;;;1.00;;
79375;SDS011;68846;53.150;18.136;2023-04-03T03:52:10;5.60;;;1.50;;
79375;SDS011;68846;53.150;18.136;2023-04-03T03:54:37;3.80;;;1.30;;
79375;SDS011;68846;53.150;18.136;2023-04-03T03:57:05;8.00;;;1.10;;
79375;SDS011;68846;53.150;18.136;2023-04-03T04:02:00;4.10;;;1.10;;
79375;SDS011;68846;53.150;18.136;2023-04-03T04:04:27;3.10;;;1.00;;
79375;SDS011;68846;53.150;18.136;2023-04-03T04:06:55;3.00;;;1.10;;
79375;SDS011;68846;53.150;18.136;2023-04-03T04:09:22;3.60;;;1.40;;
79375;SDS011;68846;53.150;18.136;2023-04-03T04:14:41;2.70;;;1.30;;
79375;SDS011;68846;53.150;18.136;2023-04-03T04:17:08;4.00;;;1.60;;
79375;SDS011;68846;53.150;18.136;2023-04-03T04:19:36;2.70;;;0.60;;
79375;SDS011;68846;53.150;18.136;2023-04-03T04:22:03;4.80;;;1.30;;
79375;SDS011;68846;53.150;18.136;2023-04-03T04:24:31;4.20;;;1.40;;
79375;SDS011;68846;53.150;18.136;2023-04-03T04:26:59;2.90;;;1.00;;
79375;SDS011;68846;53.150;18.136;2023-04-03T04:31:53;2.50;;;1.00;;
79375;SDS011;68846;53.150;18.136;2023-04-03T04:34:21;3.80;;;1.00;;
79375;SDS011;68846;53.150;18.136;2023-04-03T04:36:48;4.20;;;0.90;;
79375;SDS011;68846;53.150;18.136;2023-04-03T04:39:16;6.70;;;1.10;;
79375;SDS011;68846;53.150;18.136;2023-04-03T04:44:10;3.30;;;1.00;;
79375;SDS011;68846;53.150;18.136;2023-04-03T04:46:37;4.50;;;1.10;;
79375;SDS011;68846;53.150;18.136;2023-04-03T04:49:04;3.60;;;0.90;;
79375;SDS011;68846;53.150;18.136;2023-04-03T04:51:32;2.30;;;0.80;;
79375;SDS011;68846;53.150;18.136;2023-04-03T04:53:59;5.80;;;1.20;;
79375;SDS011;68846;53.150;18.136;2023-04-03T04:56:26;2.80;;;1.10;;
79375;SDS011;68846;53.150;18.136;2023-04-03T04:58:55;2.50;;;1.30;;
79375;SDS011;68846;53.150;18.136;2023-04-03T05:01:22;3.70;;;1.20;;
79375;SDS011;68846;53.150;18.136;2023-04-03T05:03:57;2.60;;;1.10;;
79375;SDS011;68846;53.150;18.136;2023-04-03T05:06:25;5.40;;;1.40;;
79375;SDS011;68846;53.150;18.136;2023-04-03T05:08:53;2.80;;;0.70;;
79375;SDS011;68846;53.150;18.136;2023-04-03T05:13:47;4.50;;;1.60;;
79375;SDS011;68846;53.150;18.136;2023-04-03T05:16:14;2.60;;;1.30;;
79375;SDS011;68846;53.150;18.136;2023-04-03T05:18:42;3.90;;;1.00;;
79375;SDS011;68846;53.150;18.136;2023-04-03T05:21:11;3.70;;;1.20;;
79375;SDS011;68846;53.150;18.136;2023-04-03T05:23:38;3.60;;;1.80;;
79375;SDS011;68846;53.150;18.136;2023-04-03T05:26:06;4.00;;;1.40;;
79375;SDS011;68846;53.150;18.136;2023-04-03T05:28:34;3.10;;;1.10;;
79375;SDS011;68846;53.150;18.136;2023-04-03T05:31:02;2.30;;;1.00;;
79375;SDS011;68846;53.150;18.136;2023-04-03T05:33:33;4.20;;;1.40;;
79375;SDS011;68846;53.150;18.136;2023-04-03T05:36:04;4.80;;;1.10;;
79375;SDS011;68846;53.150;18.136;2023-04-03T05:41:26;2.90;;;1.10;;
79375;SDS011;68846;53.150;18.136;2023-04-03T05:43:53;6.80;;;1.50;;
79375;SDS011;68846;53.150;18.136;2023-04-03T05:46:20;4.80;;;1.30;;
79375;SDS011;68846;53.150;18.136;2023-04-03T05:48:51;3.40;;;1.10;;
79375;SDS011;68846;53.150;18.136;2023-04-03T05:51:24;3.90;;;1.30;;
79375;SDS011;68846;53.150;18.136;2023-04-03T05:53:58;2.50;;;0.90;;
79375;SDS011;68846;53.150;18.136;2023-04-03T05:56:30;2.60;;;1.10;;
79375;SDS011;68846;53.150;18.136;2023-04-03T05:58:57;4.50;;;1.70;;
79375;SDS011;68846;53.150;18.136;2023-04-03T06:01:25;4.10;;;1.40;;
79375;SDS011;68846;53.150;18.136;2023-04-03T06:06:18;2.70;;;1.10;;
79375;SDS011;68846;53.150;18.136;2023-04-03T06:08:46;4.90;;;1.40;;
79375;SDS011;68846;53.150;18.136;2023-04-03T06:11:13;3.80;;;1.40;;
79375;SDS011;68846;53.150;18.136;2023-04-03T06:13:41;4.00;;;1.40;;
79375;SDS011;68846;53.150;18.136;2023-04-03T06:21:07;4.30;;;1.30;;
79375;SDS011;68846;53.150;18.136;2023-04-03T06:23:34;4.30;;;1.20;;
79375;SDS011;68846;53.150;18.136;2023-04-03T06:26:02;4.60;;;1.10;;
79375;SDS011;68846;53.150;18.136;2023-04-03T06:28:29;3.60;;;1.20;;
79375;SDS011;68846;53.150;18.136;2023-04-03T06:30:56;4.50;;;1.00;;
79375;SDS011;68846;53.150;18.136;2023-04-03T06:33:23;4.10;;;1.40;;
79375;SDS011;68846;53.150;18.136;2023-04-03T06:38:22;4.00;;;1.10;;
79375;SDS011;68846;53.150;18.136;2023-04-03T06:43:16;4.30;;;1.30;;
79375;SDS011;68846;53.150;18.136;2023-04-03T06:45:43;6.50;;;1.40;;
79375;SDS011;68846;53.150;18.136;2023-04-03T06:48:10;2.70;;;0.90;;
79375;SDS011;68846;53.150;18.136;2023-04-03T06:50:38;2.40;;;1.00;;
79375;SDS011;68846;53.150;18.136;2023-04-03T06:53:05;5.30;;;1.40;;
79375;SDS011;68846;53.150;18.136;2023-04-03T06:55:33;3.30;;;1.10;;
79375;SDS011;68846;53.150;18.136;2023-04-03T07:00:27;1.80;;;1.20;;
79375;SDS011;68846;53.150;18.136;2023-04-03T07:02:54;3.30;;;1.20;;
79375;SDS011;68846;53.150;18.136;2023-04-03T07:05:24;6.60;;;1.60;;
79375;SDS011;68846;53.150;18.136;2023-04-03T07:07:51;4.40;;;2.00;;
79375;SDS011;68846;53.150;18.136;2023-04-03T07:10:19;4.10;;;1.00;;
79375;SDS011;68846;53.150;18.136;2023-04-03T07:15:13;5.60;;;1.40;;
79375;SDS011;68846;53.150;18.136;2023-04-03T07:17:41;5.40;;;1.50;;
79375;SDS011;68846;53.150;18.136;2023-04-03T07:20:09;2.80;;;1.50;;
79375;SDS011;68846;53.150;18.136;2023-04-03T07:22:37;3.60;;;1.40;;
79375;SDS011;68846;53.150;18.136;2023-04-03T07:25:04;4.30;;;1.20;;
79375;SDS011;68846;53.150;18.136;2023-04-03T07:27:33;2.40;;;1.20;;
79375;SDS011;68846;53.150;18.136;2023-04-03T07:30:01;3.30;;;1.20;;
79375;SDS011;68846;53.150;18.136;2023-04-03T07:32:28;2.00;;;0.80;;
79375;SDS011;68846;53.150;18.136;2023-04-03T07:34:56;2.60;;;1.00;;
79375;SDS011;68846;53.150;18.136;2023-04-03T07:37:23;1.50;;;0.80;;
79375;SDS011;68846;53.150;18.136;2023-04-03T07:39:50;1.60;;;0.80;;
79375;SDS011;68846;53.150;18.136;2023-04-03T07:42:17;1.30;;;0.90;;
79375;SDS011;68846;53.150;18.136;2023-04-03T07:47:11;3.50;;;0.90;;
79375;SDS011;68846;53.150;18.136;2023-04-03T07:49:39;1.20;;;1.00;;
79375;SDS011;68846;53.150;18.136;2023-04-03T07:52:06;3.50;;;1.20;;
79375;SDS011;68846;53.150;18.136;2023-04-03T07:54:35;1.10;;;0.80;;
79375;SDS011;68846;53.150;18.136;2023-04-03T07:59:29;3.40;;;1.10;;
79375;SDS011;68846;53.150;18.136;2023-04-03T08:01:56;1.10;;;0.60;;
79375;SDS011;68846;53.150;18.136;2023-04-03T08:04:23;3.00;;;1.10;;
79375;SDS011;68846;53.150;18.136;2023-04-03T08:06:51;3.10;;;0.90;;
79375;SDS011;68846;53.150;18.136;2023-04-03T08:09:19;2.90;;;1.10;;
79375;SDS011;68846;53.150;18.136;2023-04-03T08:11:45;4.60;;;0.80;;
79375;SDS011;68846;53.150;18.136;2023-04-03T08:14:13;2.10;;;1.00;;
79375;SDS011;68846;53.150;18.136;2023-04-03T08:16:44;1.30;;;0.70;;
79375;SDS011;68846;53.150;18.136;2023-04-03T08:19:14;3.40;;;1.00;;
79375;SDS011;68846;53.150;18.136;2023-04-03T08:21:44;2.80;;;0.80;;
79375;SDS011;68846;53.150;18.136;2023-04-03T08:24:13;3.80;;;1.10;;
79375;SDS011;68846;53.150;18.136;2023-04-03T08:26:40;2.90;;;0.90;;
79375;SDS011;68846;53.150;18.136;2023-04-03T08:29:07;1.70;;;0.70;;
79375;SDS011;68846;53.150;18.136;2023-04-03T08:34:00;1.40;;;0.80;;
79375;SDS011;68846;53.150;18.136;2023-04-03T08:36:28;2.80;;;0.80;;
79375;SDS011;68846;53.150;18.136;2023-04-03T08:38:56;2.20;;;0.70;;
79375;SDS011;68846;53.150;18.136;2023-04-03T08:49:53;2.30;;;1.00;;
79375;SDS011;68846;53.150;18.136;2023-04-03T08:52:32;2.80;;;0.90;;
79375;SDS011;68846;53.150;18.136;2023-04-03T08:58:02;2.90;;;1.10;;
79375;SDS011;68846;53.150;18.136;2023-04-03T09:00:39;3.40;;;0.90;;
79375;SDS011;68846;53.150;18.136;2023-04-03T09:03:13;1.50;;;0.90;;
79375;SDS011;68846;53.150;18.136;2023-04-03T09:05:43;2.30;;;1.00;;
79375;SDS011;68846;53.150;18.136;2023-04-03T09:10:42;2.10;;;0.90;;
79375;SDS011;68846;53.150;18.136;2023-04-03T09:13:16;3.10;;;0.90;;
79375;SDS011;68846;53.150;18.136;2023-04-03T09:15:57;2.30;;;0.90;;
79375;SDS011;68846;53.150;18.136;2023-04-03T09:18:31;1.20;;;0.90;;
79375;SDS011;68846;53.150;18.136;2023-04-03T09:23:58;1.50;;;0.80;;
79375;SDS011;68846;53.150;18.136;2023-04-03T09:26:33;2.50;;;1.00;;
79375;SDS011;68846;53.150;18.136;2023-04-03T09:29:22;1.60;;;0.80;;
79375;SDS011;68846;53.150;18.136;2023-04-03T09:32:22;1.30;;;1.00;;
79375;SDS011;68846;53.150;18.136;2023-04-03T09:37:52;1.70;;;0.90;;
79375;SDS011;68846;53.150;18.136;2023-04-03T09:40:47;1.60;;;0.90;;
79375;SDS011;68846;53.150;18.136;2023-04-03T09:43:22;2.10;;;1.10;;
79375;SDS011;68846;53.150;18.136;2023-04-03T09:45:55;1.70;;;0.80;;
79375;SDS011;68846;53.150;18.136;2023-04-03T09:48:24;3.20;;;1.10;;
79375;SDS011;68846;53.150;18.136;2023-04-03T09:50:55;2.00;;;1.00;;
79375;SDS011;68846;53.150;18.136;2023-04-03T09:53:36;2.00;;;1.10;;
79375;SDS011;68846;53.150;18.136;2023-04-03T09:56:25;2.90;;;0.80;;
79375;SDS011;68846;53.150;18.136;2023-04-03T10:01:32;1.70;;;0.70;;
79375;SDS011;68846;53.150;18.136;2023-04-03T10:06:43;1.60;;;0.90;;
79375;SDS011;68846;53.150;18.136;2023-04-03T10:09:31;2.50;;;0.80;;
79375;SDS011;68846;53.150;18.136;2023-04-03T10:12:03;1.20;;;1.10;;
79375;SDS011;68846;53.150;18.136;2023-04-03T10:14:39;2.40;;;0.90;;
79375;SDS011;68846;53.150;18.136;2023-04-03T10:17:29;3.30;;;0.90;;
79375;SDS011;68846;53.150;18.136;2023-04-03T10:23:10;3.40;;;0.80;;
79375;SDS011;68846;53.150;18.136;2023-04-03T10:28:28;1.80;;;1.00;;
79375;SDS011;68846;53.150;18.136;2023-04-03T10:44:56;2.40;;;0.80;;
79375;SDS011;68846;53.150;18.136;2023-04-03T10:58:29;1.60;;;0.90;;
79375;SDS011;68846;53.150;18.136;2023-04-03T11:01:01;1.20;;;0.70;;
79375;SDS011;68846;53.150;18.136;2023-04-03T11:03:47;1.70;;;0.60;;
79375;SDS011;68846;53.150;18.136;2023-04-03T11:06:18;1.80;;;0.90;;
79375;SDS011;68846;53.150;18.136;2023-04-03T11:08:51;1.70;;;0.80;;
79375;SDS011;68846;53.150;18.136;2023-04-03T11:11:34;3.90;;;0.70;;
79375;SDS011;68846;53.150;18.136;2023-04-03T11:14:05;2.10;;;0.70;;
79375;SDS011;68846;53.150;18.136;2023-04-03T11:16:43;2.30;;;0.70;;
79375;SDS011;68846;53.150;18.136;2023-04-03T11:19:18;8.20;;;0.90;;
79375;SDS011;68846;53.150;18.136;2023-04-03T11:21:57;10.60;;;1.30;;
79375;SDS011;68846;53.150;18.136;2023-04-03T11:24:32;12.70;;;1.30;;
79375;SDS011;68846;53.150;18.136;2023-04-03T11:27:01;2.00;;;0.80;;
79375;SDS011;68846;53.150;18.136;2023-04-03T11:29:34;3.20;;;0.60;;
79375;SDS011;68846;53.150;18.136;2023-04-03T11:34:54;2.10;;;0.70;;
79375;SDS011;68846;53.150;18.136;2023-04-03T11:37:33;2.40;;;0.90;;
79375;SDS011;68846;53.150;18.136;2023-04-03T11:40:08;2.00;;;0.90;;
79375;SDS011;68846;53.150;18.136;2023-04-03T11:42:47;1.60;;;0.80;;
79375;SDS011;68846;53.150;18.136;2023-04-03T11:45:35;2.30;;;0.70;;
79375;SDS011;68846;53.150;18.136;2023-04-03T11:48:06;1.40;;;0.90;;
79375;SDS011;68846;53.150;18.136;2023-04-03T11:50:55;1.00;;;0.80;;
79375;SDS011;68846;53.150;18.136;2023-04-03T11:53:36;3.10;;;0.80;;
79375;SDS011;68846;53.150;18.136;2023-04-03T12:04:10;2.00;;;0.60;;
79375;SDS011;68846;53.150;18.136;2023-04-03T12:06:48;4.20;;;0.70;;
79375;SDS011;68846;53.150;18.136;2023-04-03T12:09:25;1.40;;;0.80;;
79375;SDS011;68846;53.150;18.136;2023-04-03T12:11:59;1.30;;;0.80;;
79375;SDS011;68846;53.150;18.136;2023-04-03T12:14:47;1.50;;;0.70;;
79375;SDS011;68846;53.150;18.136;2023-04-03T12:19:53;2.40;;;0.60;;
79375;SDS011;68846;53.150;18.136;2023-04-03T12:24:48;1.30;;;0.60;;
79375;SDS011;68846;53.150;18.136;2023-04-03T12:27:27;1.60;;;0.60;;
79375;SDS011;68846;53.150;18.136;2023-04-03T12:35:12;2.20;;;0.60;;
79375;SDS011;68846;53.150;18.136;2023-04-03T12:40:57;1.40;;;1.00;;
79375;SDS011;68846;53.150;18.136;2023-04-03T12:46:19;1.80;;;1.30;;
79375;SDS011;68846;53.150;18.136;2023-04-03T12:54:09;1.30;;;0.60;;
79375;SDS011;68846;53.150;18.136;2023-04-03T12:56:42;1.40;;;0.70;;
79375;SDS011;68846;53.150;18.136;2023-04-03T12:59:14;1.60;;;0.60;;
79375;SDS011;68846;53.150;18.136;2023-04-03T13:01:44;2.00;;;0.60;;
79375;SDS011;68846;53.150;18.136;2023-04-03T13:04:20;1.20;;;0.70;;
79375;SDS011;68846;53.150;18.136;2023-04-03T13:06:48;2.90;;;0.80;;
79375;SDS011;68846;53.150;18.136;2023-04-03T13:09:23;1.50;;;0.60;;
79375;SDS011;68846;53.150;18.136;2023-04-03T13:12:03;1.70;;;0.80;;
79375;SDS011;68846;53.150;18.136;2023-04-03T13:14:39;2.30;;;0.90;;
79375;SDS011;68846;53.150;18.136;2023-04-03T13:17:12;3.60;;;0.90;;
79375;SDS011;68846;53.150;18.136;2023-04-03T13:19:43;2.90;;;0.90;;
79375;SDS011;68846;53.150;18.136;2023-04-03T13:25:11;2.70;;;0.70;;
79375;SDS011;68846;53.150;18.136;2023-04-03T13:27:42;2.60;;;0.70;;
79375;SDS011;68846;53.150;18.136;2023-04-03T13:30:20;1.20;;;0.50;;
79375;SDS011;68846;53.150;18.136;2023-04-03T13:32:51;1.30;;;0.70;;
79375;SDS011;68846;53.150;18.136;2023-04-03T13:35:53;1.70;;;0.70;;
79375;SDS011;68846;53.150;18.136;2023-04-03T13:40:58;2.90;;;1.10;;
79375;SDS011;68846;53.150;18.136;2023-04-03T13:43:30;1.60;;;0.80;;
79375;SDS011;68846;53.150;18.136;2023-04-03T13:48:37;3.20;;;0.60;;
79375;SDS011;68846;53.150;18.136;2023-04-03T13:59:00;1.80;;;0.90;;
79375;SDS011;68846;53.150;18.136;2023-04-03T14:04:14;2.80;;;1.10;;
79375;SDS011;68846;53.150;18.136;2023-04-03T14:06:42;3.00;;;1.30;;
79375;SDS011;68846;53.150;18.136;2023-04-03T14:09:09;6.20;;;3.60;;
79375;SDS011;68846;53.150;18.136;2023-04-03T14:11:36;7.40;;;3.80;;
79375;SDS011;68846;53.150;18.136;2023-04-03T14:16:40;3.90;;;1.60;;
79375;SDS011;68846;53.150;18.136;2023-04-03T14:19:14;5.90;;;2.40;;
79375;SDS011;68846;53.150;18.136;2023-04-03T14:21:46;8.20;;;3.80;;
79375;SDS011;68846;53.150;18.136;2023-04-03T14:24:13;10.60;;;4.30;;
79375;SDS011;68846;53.150;18.136;2023-04-03T14:26:40;6.00;;;3.30;;
79375;SDS011;68846;53.150;18.136;2023-04-03T14:29:09;6.10;;;2.10;;
79375;SDS011;68846;53.150;18.136;2023-04-03T14:31:37;3.00;;;1.60;;
79375;SDS011;68846;53.150;18.136;2023-04-03T14:34:05;2.80;;;1.10;;
79375;SDS011;68846;53.150;18.136;2023-04-03T14:36:32;2.40;;;1.40;;
79375;SDS011;68846;53.150;18.136;2023-04-03T14:38:59;4.20;;;0.90;;
79375;SDS011;68846;53.150;18.136;2023-04-03T14:41:27;2.30;;;1.20;;
79375;SDS011;68846;53.150;18.136;2023-04-03T14:43:54;3.40;;;1.00;;
79375;SDS011;68846;53.150;18.136;2023-04-03T14:49:01;2.20;;;1.10;;
79375;SDS011;68846;53.150;18.136;2023-04-03T14:51:33;2.40;;;0.80;;
79375;SDS011;68846;53.150;18.136;2023-04-03T14:54:00;2.80;;;0.90;;
79375;SDS011;68846;53.150;18.136;2023-04-03T14:56:28;2.60;;;1.00;;
79375;SDS011;68846;53.150;18.136;2023-04-03T14:58:58;2.40;;;1.00;;
79375;SDS011;68846;53.150;18.136;2023-04-03T15:01:27;1.80;;;1.00;;
79375;SDS011;68846;53.150;18.136;2023-04-03T15:03:55;2.10;;;1.10;;
79375;SDS011;68846;53.150;18.136;2023-04-03T15:06:21;2.40;;;1.10;;
79375;SDS011;68846;53.150;18.136;2023-04-03T15:08:49;3.20;;;1.10;;
79375;SDS011;68846;53.150;18.136;2023-04-03T15:11:16;2.80;;;1.10;;
79375;SDS011;68846;53.150;18.136;2023-04-03T15:13:43;1.50;;;1.00;;
79375;SDS011;68846;53.150;18.136;2023-04-03T15:16:17;3.00;;;1.20;;
79375;SDS011;68846;53.150;18.136;2023-04-03T15:18:46;2.30;;;0.90;;
79375;SDS011;68846;53.150;18.136;2023-04-03T15:21:14;2.40;;;1.00;;
79375;SDS011;68846;53.150;18.136;2023-04-03T15:23:41;2.30;;;1.00;;
79375;SDS011;68846;53.150;18.136;2023-04-03T15:26:09;5.80;;;1.20;;
79375;SDS011;68846;53.150;18.136;2023-04-03T15:28:37;4.40;;;1.20;;
79375;SDS011;68846;53.150;18.136;2023-04-03T15:31:08;1.90;;;0.90;;
79375;SDS011;68846;53.150;18.136;2023-04-03T15:33:36;1.80;;;1.20;;
79375;SDS011;68846;53.150;18.136;2023-04-03T15:36:03;2.00;;;0.90;;
79375;SDS011;68846;53.150;18.136;2023-04-03T15:38:31;2.30;;;1.00;;
79375;SDS011;68846;53.150;18.136;2023-04-03T15:40:59;3.10;;;1.00;;
79375;SDS011;68846;53.150;18.136;2023-04-03T15:43:25;3.20;;;1.00;;
79375;SDS011;68846;53.150;18.136;2023-04-03T15:45:56;3.10;;;1.20;;
79375;SDS011;68846;53.150;18.136;2023-04-03T15:48:25;1.80;;;1.00;;
79375;SDS011;68846;53.150;18.136;2023-04-03T15:50:53;2.40;;;1.10;;
79375;SDS011;68846;53.150;18.136;2023-04-03T15:53:45;2.80;;;1.20;;
79375;SDS011;68846;53.150;18.136;2023-04-03T15:56:13;3.00;;;1.20;;
79375;SDS011;68846;53.150;18.136;2023-04-03T15:58:39;2.10;;;1.30;;
79375;SDS011;68846;53.150;18.136;2023-04-03T16:01:08;3.20;;;1.00;;
79375;SDS011;68846;53.150;18.136;2023-04-03T16:03:37;2.70;;;0.90;;
79375;SDS011;68846;53.150;18.136;2023-04-03T16:06:11;1.60;;;1.00;;
79375;SDS011;68846;53.150;18.136;2023-04-03T16:08:45;3.40;;;0.90;;
79375;SDS011;68846;53.150;18.136;2023-04-03T16:11:14;1.80;;;0.90;;
79375;SDS011;68846;53.150;18.136;2023-04-03T16:13:41;2.90;;;1.10;;
79375;SDS011;68846;53.150;18.136;2023-04-03T16:16:08;1.10;;;0.90;;
79375;SDS011;68846;53.150;18.136;2023-04-03T16:18:36;1.70;;;0.90;;
79375;SDS011;68846;53.150;18.136;2023-04-03T16:21:03;2.20;;;1.10;;
79375;SDS011;68846;53.150;18.136;2023-04-03T16:23:33;5.10;;;1.00;;
79375;SDS011;68846;53.150;18.136;2023-04-03T16:26:01;1.40;;;0.70;;
79375;SDS011;68846;53.150;18.136;2023-04-03T16:28:29;2.60;;;1.10;;
79375;SDS011;68846;53.150;18.136;2023-04-03T16:30:57;2.00;;;1.00;;
79375;SDS011;68846;53.150;18.136;2023-04-03T16:33:26;2.30;;;1.10;;
79375;SDS011;68846;53.150;18.136;2023-04-03T16:35:53;1.90;;;0.80;;
79375;SDS011;68846;53.150;18.136;2023-04-03T16:38:20;1.40;;;0.90;;
79375;SDS011;68846;53.150;18.136;2023-04-03T16:40:48;2.90;;;1.00;;
79375;SDS011;68846;53.150;18.136;2023-04-03T16:43:16;3.00;;;0.90;;
79375;SDS011;68846;53.150;18.136;2023-04-03T16:45:43;2.00;;;1.20;;
79375;SDS011;68846;53.150;18.136;2023-04-03T16:48:10;2.20;;;1.00;;
79375;SDS011;68846;53.150;18.136;2023-04-03T16:50:37;1.50;;;0.90;;
79375;SDS011;68846;53.150;18.136;2023-04-03T16:53:04;3.30;;;1.30;;
79375;SDS011;68846;53.150;18.136;2023-04-03T16:55:35;3.80;;;1.50;;
79375;SDS011;68846;53.150;18.136;2023-04-03T16:58:02;2.20;;;1.60;;
79375;SDS011;68846;53.150;18.136;2023-04-03T17:00:30;3.30;;;1.90;;
79375;SDS011;68846;53.150;18.136;2023-04-03T17:02:57;3.40;;;1.50;;
79375;SDS011;68846;53.150;18.136;2023-04-03T17:05:24;2.50;;;1.70;;
79375;SDS011;68846;53.150;18.136;2023-04-03T17:07:52;4.90;;;1.60;;
79375;SDS011;68846;53.150;18.136;2023-04-03T17:10:19;3.70;;;1.60;;
79375;SDS011;68846;53.150;18.136;2023-04-03T17:15:14;2.90;;;1.30;;
79375;SDS011;68846;53.150;18.136;2023-04-03T17:17:44;4.40;;;2.40;;
79375;SDS011;68846;53.150;18.136;2023-04-03T17:22:38;2.30;;;1.30;;
79375;SDS011;68846;53.150;18.136;2023-04-03T17:25:05;4.00;;;1.40;;
79375;SDS011;68846;53.150;18.136;2023-04-03T17:27:32;4.60;;;1.90;;
79375;SDS011;68846;53.150;18.136;2023-04-03T17:29:59;3.50;;;1.90;;
79375;SDS011;68846;53.150;18.136;2023-04-03T17:32:28;3.50;;;1.60;;
79375;SDS011;68846;53.150;18.136;2023-04-03T17:34:56;3.20;;;1.40;;
79375;SDS011;68846;53.150;18.136;2023-04-03T17:37:22;2.10;;;1.20;;
79375;SDS011;68846;53.150;18.136;2023-04-03T17:42:16;1.50;;;0.90;;
79375;SDS011;68846;53.150;18.136;2023-04-03T17:44:43;3.30;;;1.60;;
79375;SDS011;68846;53.150;18.136;2023-04-03T17:49:38;3.20;;;1.20;;
79375;SDS011;68846;53.150;18.136;2023-04-03T17:52:05;5.80;;;1.30;;
79375;SDS011;68846;53.150;18.136;2023-04-03T17:54:32;3.20;;;1.20;;